HKG weather

CLOSED Hong Kong International Airport Kai Tak
Hong Kong, Hong Kong

Public forecast

Using degrees Celsius for public forecast. Weather courtesy of forecast.io.

METAR (pilot weather report)

Closest report is Hong Kong International Airport, 15.7 nm (29.1 km) W. Retrieved 2019/05/23 08:30 UTC (0 seconds ago):

VHHH 230830Z 10015KT 9999 FEW012 SCT028 28/24 Q1009 TEMPO 2500 -TSRA SHRA FEW012CB SCT020 BKN040

TAF (pilot weather forecast)

Closest forecast is Hong Kong International Airport, 15.7 nm (29.1 km) W. Retrieved 2019/05/23 06:25 UTC (2 hours ago):

TAF VHHH 230500Z 2306/2412 12010KT 8000 FEW012 SCT035 TX30/2306Z TX30/2406Z TN25/2322Z TEMPO 2306/2312 2500 TSRA SHRA FEW010CB SCT020 BKN040 TEMPO 2312/2317 3500 SHRA FEW012CB SCT025 TEMPO 2317/2323 2500 TSRA SHRA FEW010CB SCT020 BKN040 TEMPO 2323/2405 3500 SHRA FEW012CB SCT025